sensor_id;sensor_type;location;lat;lon;timestamp;P1;durP1;ratioP1;P2;durP2;ratioP2
84140;SDS011;74257;52.540;13.416;2024-03-02T00:00:21;13.63;;;7.20;;
84140;SDS011;74257;52.540;13.416;2024-03-02T00:03:07;16.20;;;8.10;;
84140;SDS011;74257;52.540;13.416;2024-03-02T00:05:34;11.70;;;6.75;;
84140;SDS011;74257;52.540;13.416;2024-03-02T00:08:00;11.55;;;7.13;;
84140;SDS011;74257;52.540;13.416;2024-03-02T00:10:47;13.18;;;7.28;;
84140;SDS011;74257;52.540;13.416;2024-03-02T00:13:13;14.63;;;7.72;;
84140;SDS011;74257;52.540;13.416;2024-03-02T00:15:57;11.95;;;6.88;;
84140;SDS011;74257;52.540;13.416;2024-03-02T00:18:30;15.63;;;7.60;;
84140;SDS011;74257;52.540;13.416;2024-03-02T00:20:57;14.93;;;7.35;;
84140;SDS011;74257;52.540;13.416;2024-03-02T00:23:23;16.23;;;7.57;;
84140;SDS011;74257;52.540;13.416;2024-03-02T00:25:53;14.20;;;7.07;;
84140;SDS011;74257;52.540;13.416;2024-03-02T00:28:21;14.65;;;8.13;;
84140;SDS011;74257;52.540;13.416;2024-03-02T00:30:52;13.63;;;7.47;;
84140;SDS011;74257;52.540;13.416;2024-03-02T00:33:20;13.93;;;7.03;;
84140;SDS011;74257;52.540;13.416;2024-03-02T00:35:47;12.90;;;6.80;;
84140;SDS011;74257;52.540;13.416;2024-03-02T00:38:14;11.00;;;6.82;;
84140;SDS011;74257;52.540;13.416;2024-03-02T00:40:41;11.80;;;7.30;;
84140;SDS011;74257;52.540;13.416;2024-03-02T00:43:51;13.40;;;6.85;;
84140;SDS011;74257;52.540;13.416;2024-03-02T00:48:46;11.40;;;6.82;;
84140;SDS011;74257;52.540;13.416;2024-03-02T00:51:17;11.68;;;6.88;;
84140;SDS011;74257;52.540;13.416;2024-03-02T00:53:43;13.02;;;6.88;;
84140;SDS011;74257;52.540;13.416;2024-03-02T00:56:10;15.10;;;7.03;;
84140;SDS011;74257;52.540;13.416;2024-03-02T00:58:37;13.55;;;7.03;;
84140;SDS011;74257;52.540;13.416;2024-03-02T01:01:03;11.50;;;6.95;;
84140;SDS011;74257;52.540;13.416;2024-03-02T01:03:29;13.18;;;7.15;;
84140;SDS011;74257;52.540;13.416;2024-03-02T01:05:57;12.52;;;6.72;;
84140;SDS011;74257;52.540;13.416;2024-03-02T01:08:23;11.43;;;7.35;;
84140;SDS011;74257;52.540;13.416;2024-03-02T01:10:49;9.95;;;6.90;;
84140;SDS011;74257;52.540;13.416;2024-03-02T01:13:15;12.60;;;7.65;;
84140;SDS011;74257;52.540;13.416;2024-03-02T01:15:40;12.20;;;7.05;;
84140;SDS011;74257;52.540;13.416;2024-03-02T01:18:06;10.20;;;6.88;;
84140;SDS011;74257;52.540;13.416;2024-03-02T01:20:33;13.05;;;6.80;;
84140;SDS011;74257;52.540;13.416;2024-03-02T01:22:58;11.32;;;6.82;;
84140;SDS011;74257;52.540;13.416;2024-03-02T01:25:24;12.25;;;6.78;;
84140;SDS011;74257;52.540;13.416;2024-03-02T01:27:50;12.50;;;6.68;;
84140;SDS011;74257;52.540;13.416;2024-03-02T01:30:16;11.35;;;6.70;;
84140;SDS011;74257;52.540;13.416;2024-03-02T01:32:42;10.43;;;6.95;;
84140;SDS011;74257;52.540;13.416;2024-03-02T01:35:08;11.93;;;6.88;;
84140;SDS011;74257;52.540;13.416;2024-03-02T01:37:34;9.98;;;6.78;;
84140;SDS011;74257;52.540;13.416;2024-03-02T01:40:00;12.25;;;6.65;;
84140;SDS011;74257;52.540;13.416;2024-03-02T01:42:26;11.02;;;6.78;;
84140;SDS011;74257;52.540;13.416;2024-03-02T01:44:51;10.93;;;6.90;;
84140;SDS011;74257;52.540;13.416;2024-03-02T01:47:17;10.45;;;6.57;;
84140;SDS011;74257;52.540;13.416;2024-03-02T01:49:43;12.48;;;6.60;;
84140;SDS011;74257;52.540;13.416;2024-03-02T01:52:09;11.32;;;6.75;;
84140;SDS011;74257;52.540;13.416;2024-03-02T01:54:36;10.52;;;6.80;;
84140;SDS011;74257;52.540;13.416;2024-03-02T01:57:03;11.45;;;6.60;;
84140;SDS011;74257;52.540;13.416;2024-03-02T01:59:29;12.00;;;6.50;;
84140;SDS011;74257;52.540;13.416;2024-03-02T02:01:55;9.95;;;6.40;;
84140;SDS011;74257;52.540;13.416;2024-03-02T02:04:20;11.10;;;6.28;;
84140;SDS011;74257;52.540;13.416;2024-03-02T02:06:52;12.50;;;7.90;;
84140;SDS011;74257;52.540;13.416;2024-03-02T02:09:18;10.07;;;6.40;;
84140;SDS011;74257;52.540;13.416;2024-03-02T02:11:44;10.90;;;6.88;;
84140;SDS011;74257;52.540;13.416;2024-03-02T02:14:10;9.07;;;6.43;;
84140;SDS011;74257;52.540;13.416;2024-03-02T02:16:36;11.95;;;7.03;;
84140;SDS011;74257;52.540;13.416;2024-03-02T02:19:02;9.88;;;6.88;;
84140;SDS011;74257;52.540;13.416;2024-03-02T02:21:28;9.55;;;6.15;;
84140;SDS011;74257;52.540;13.416;2024-03-02T02:23:54;12.40;;;6.53;;
84140;SDS011;74257;52.540;13.416;2024-03-02T02:26:19;10.48;;;6.70;;
84140;SDS011;74257;52.540;13.416;2024-03-02T02:28:45;15.13;;;6.88;;
84140;SDS011;74257;52.540;13.416;2024-03-02T02:31:14;11.38;;;6.53;;
84140;SDS011;74257;52.540;13.416;2024-03-02T02:33:40;9.77;;;6.63;;
84140;SDS011;74257;52.540;13.416;2024-03-02T02:36:06;10.02;;;6.53;;
84140;SDS011;74257;52.540;13.416;2024-03-02T02:38:32;11.68;;;6.18;;
84140;SDS011;74257;52.540;13.416;2024-03-02T02:41:00;10.38;;;6.50;;
84140;SDS011;74257;52.540;13.416;2024-03-02T02:43:26;12.18;;;6.85;;
84140;SDS011;74257;52.540;13.416;2024-03-02T02:45:52;11.98;;;6.63;;
84140;SDS011;74257;52.540;13.416;2024-03-02T02:48:17;9.98;;;6.72;;
84140;SDS011;74257;52.540;13.416;2024-03-02T02:50:43;13.85;;;6.97;;
84140;SDS011;74257;52.540;13.416;2024-03-02T02:53:09;10.27;;;6.75;;
84140;SDS011;74257;52.540;13.416;2024-03-02T02:55:35;7.88;;;6.25;;
84140;SDS011;74257;52.540;13.416;2024-03-02T02:58:05;10.20;;;6.55;;
84140;SDS011;74257;52.540;13.416;2024-03-02T03:00:32;11.50;;;6.65;;
84140;SDS011;74257;52.540;13.416;2024-03-02T03:02:58;10.52;;;6.80;;
84140;SDS011;74257;52.540;13.416;2024-03-02T03:05:24;11.15;;;6.57;;
84140;SDS011;74257;52.540;13.416;2024-03-02T03:07:50;12.65;;;6.57;;
84140;SDS011;74257;52.540;13.416;2024-03-02T03:10:16;9.52;;;6.43;;
84140;SDS011;74257;52.540;13.416;2024-03-02T03:12:42;11.07;;;6.53;;
84140;SDS011;74257;52.540;13.416;2024-03-02T03:15:09;8.68;;;6.30;;
84140;SDS011;74257;52.540;13.416;2024-03-02T03:17:35;11.10;;;6.35;;
84140;SDS011;74257;52.540;13.416;2024-03-02T03:20:02;10.63;;;6.38;;
84140;SDS011;74257;52.540;13.416;2024-03-02T03:22:29;11.23;;;6.40;;
84140;SDS011;74257;52.540;13.416;2024-03-02T03:24:57;9.40;;;6.90;;
84140;SDS011;74257;52.540;13.416;2024-03-02T03:27:22;9.15;;;6.07;;
84140;SDS011;74257;52.540;13.416;2024-03-02T03:29:48;12.45;;;6.72;;
84140;SDS011;74257;52.540;13.416;2024-03-02T03:32:14;10.13;;;6.80;;
84140;SDS011;74257;52.540;13.416;2024-03-02T03:34:40;8.30;;;6.07;;
84140;SDS011;74257;52.540;13.416;2024-03-02T03:37:05;10.15;;;6.60;;
84140;SDS011;74257;52.540;13.416;2024-03-02T03:39:32;10.63;;;6.15;;
84140;SDS011;74257;52.540;13.416;2024-03-02T03:41:59;8.98;;;6.40;;
84140;SDS011;74257;52.540;13.416;2024-03-02T03:44:25;11.20;;;6.43;;
84140;SDS011;74257;52.540;13.416;2024-03-02T03:46:51;8.90;;;5.93;;
84140;SDS011;74257;52.540;13.416;2024-03-02T03:49:16;14.23;;;6.78;;
84140;SDS011;74257;52.540;13.416;2024-03-02T03:51:42;9.95;;;6.15;;
84140;SDS011;74257;52.540;13.416;2024-03-02T03:54:08;10.18;;;6.22;;
84140;SDS011;74257;52.540;13.416;2024-03-02T03:56:36;9.57;;;5.68;;
84140;SDS011;74257;52.540;13.416;2024-03-02T03:59:02;9.25;;;6.15;;
84140;SDS011;74257;52.540;13.416;2024-03-02T04:01:30;9.23;;;6.18;;
84140;SDS011;74257;52.540;13.416;2024-03-02T04:03:57;11.70;;;6.65;;
84140;SDS011;74257;52.540;13.416;2024-03-02T04:06:23;10.68;;;6.50;;
84140;SDS011;74257;52.540;13.416;2024-03-02T04:08:49;10.05;;;6.75;;
84140;SDS011;74257;52.540;13.416;2024-03-02T04:11:14;10.35;;;5.80;;
84140;SDS011;74257;52.540;13.416;2024-03-02T04:13:40;13.00;;;6.60;;
84140;SDS011;74257;52.540;13.416;2024-03-02T04:16:06;8.43;;;5.60;;
84140;SDS011;74257;52.540;13.416;2024-03-02T04:18:32;9.02;;;6.05;;
84140;SDS011;74257;52.540;13.416;2024-03-02T04:20:58;10.43;;;5.95;;
84140;SDS011;74257;52.540;13.416;2024-03-02T04:23:27;10.68;;;6.60;;
84140;SDS011;74257;52.540;13.416;2024-03-02T04:25:52;9.13;;;6.47;;
84140;SDS011;74257;52.540;13.416;2024-03-02T04:28:18;7.97;;;6.00;;
84140;SDS011;74257;52.540;13.416;2024-03-02T04:30:44;10.90;;;6.43;;
84140;SDS011;74257;52.540;13.416;2024-03-02T04:33:10;11.18;;;5.57;;
84140;SDS011;74257;52.540;13.416;2024-03-02T04:35:36;9.00;;;6.32;;
84140;SDS011;74257;52.540;13.416;2024-03-02T04:38:02;10.18;;;5.95;;
84140;SDS011;74257;52.540;13.416;2024-03-02T04:40:28;9.18;;;6.65;;
84140;SDS011;74257;52.540;13.416;2024-03-02T04:42:53;8.60;;;6.35;;
84140;SDS011;74257;52.540;13.416;2024-03-02T04:45:19;8.45;;;5.82;;
84140;SDS011;74257;52.540;13.416;2024-03-02T04:47:45;9.05;;;6.45;;
84140;SDS011;74257;52.540;13.416;2024-03-02T04:50:11;9.07;;;5.97;;
84140;SDS011;74257;52.540;13.416;2024-03-02T04:52:36;9.52;;;6.28;;
84140;SDS011;74257;52.540;13.416;2024-03-02T04:55:03;9.40;;;6.07;;
84140;SDS011;74257;52.540;13.416;2024-03-02T04:57:42;10.10;;;5.57;;
84140;SDS011;74257;52.540;13.416;2024-03-02T05:00:11;9.30;;;7.05;;
84140;SDS011;74257;52.540;13.416;2024-03-02T05:02:37;10.48;;;6.93;;
84140;SDS011;74257;52.540;13.416;2024-03-02T05:05:03;8.95;;;6.30;;
84140;SDS011;74257;52.540;13.416;2024-03-02T05:07:29;9.38;;;6.20;;
84140;SDS011;74257;52.540;13.416;2024-03-02T05:09:55;8.63;;;5.65;;
84140;SDS011;74257;52.540;13.416;2024-03-02T05:12:21;10.65;;;6.05;;
84140;SDS011;74257;52.540;13.416;2024-03-02T05:15:06;8.52;;;6.03;;
84140;SDS011;74257;52.540;13.416;2024-03-02T05:17:32;11.70;;;6.18;;
84140;SDS011;74257;52.540;13.416;2024-03-02T05:19:58;8.80;;;5.95;;
84140;SDS011;74257;52.540;13.416;2024-03-02T05:22:24;9.23;;;6.57;;
84140;SDS011;74257;52.540;13.416;2024-03-02T05:24:50;9.07;;;5.78;;
84140;SDS011;74257;52.540;13.416;2024-03-02T05:27:16;9.73;;;6.55;;
84140;SDS011;74257;52.540;13.416;2024-03-02T05:29:42;8.13;;;5.60;;
84140;SDS011;74257;52.540;13.416;2024-03-02T05:32:07;8.88;;;5.88;;
84140;SDS011;74257;52.540;13.416;2024-03-02T05:34:33;11.63;;;6.57;;
84140;SDS011;74257;52.540;13.416;2024-03-02T05:37:00;9.40;;;5.95;;
84140;SDS011;74257;52.540;13.416;2024-03-02T05:39:27;9.10;;;6.45;;
84140;SDS011;74257;52.540;13.416;2024-03-02T05:41:52;7.85;;;5.43;;
84140;SDS011;74257;52.540;13.416;2024-03-02T05:44:18;9.73;;;6.20;;
84140;SDS011;74257;52.540;13.416;2024-03-02T05:46:44;8.13;;;5.80;;
84140;SDS011;74257;52.540;13.416;2024-03-02T05:49:11;9.55;;;5.95;;
84140;SDS011;74257;52.540;13.416;2024-03-02T05:51:36;8.05;;;6.18;;
84140;SDS011;74257;52.540;13.416;2024-03-02T05:54:02;13.30;;;6.22;;
84140;SDS011;74257;52.540;13.416;2024-03-02T05:56:28;8.02;;;5.93;;
84140;SDS011;74257;52.540;13.416;2024-03-02T05:58:54;8.63;;;6.18;;
84140;SDS011;74257;52.540;13.416;2024-03-02T06:01:33;11.75;;;6.28;;
84140;SDS011;74257;52.540;13.416;2024-03-02T06:03:59;9.65;;;5.75;;
84140;SDS011;74257;52.540;13.416;2024-03-02T06:06:24;8.25;;;6.07;;
84140;SDS011;74257;52.540;13.416;2024-03-02T06:08:51;9.13;;;6.10;;
84140;SDS011;74257;52.540;13.416;2024-03-02T06:11:17;7.88;;;5.95;;
84140;SDS011;74257;52.540;13.416;2024-03-02T06:13:44;8.43;;;5.90;;
84140;SDS011;74257;52.540;13.416;2024-03-02T06:16:10;9.57;;;5.95;;
84140;SDS011;74257;52.540;13.416;2024-03-02T06:18:36;11.93;;;6.10;;
84140;SDS011;74257;52.540;13.416;2024-03-02T06:21:02;9.40;;;5.55;;
84140;SDS011;74257;52.540;13.416;2024-03-02T06:23:28;9.57;;;6.25;;
84140;SDS011;74257;52.540;13.416;2024-03-02T06:25:54;11.98;;;6.38;;
84140;SDS011;74257;52.540;13.416;2024-03-02T06:28:20;7.85;;;5.63;;
84140;SDS011;74257;52.540;13.416;2024-03-02T06:30:45;9.07;;;5.70;;
84140;SDS011;74257;52.540;13.416;2024-03-02T06:33:11;8.38;;;5.70;;
84140;SDS011;74257;52.540;13.416;2024-03-02T06:35:37;8.98;;;5.70;;
84140;SDS011;74257;52.540;13.416;2024-03-02T06:38:04;9.50;;;5.78;;
84140;SDS011;74257;52.540;13.416;2024-03-02T06:40:30;8.35;;;5.63;;
84140;SDS011;74257;52.540;13.416;2024-03-02T06:42:55;10.07;;;6.30;;
84140;SDS011;74257;52.540;13.416;2024-03-02T06:45:21;12.75;;;6.32;;
84140;SDS011;74257;52.540;13.416;2024-03-02T06:47:47;11.27;;;5.68;;
84140;SDS011;74257;52.540;13.416;2024-03-02T06:50:13;13.27;;;6.20;;
84140;SDS011;74257;52.540;13.416;2024-03-02T06:52:39;9.10;;;6.13;;
84140;SDS011;74257;52.540;13.416;2024-03-02T06:55:04;8.43;;;5.78;;
84140;SDS011;74257;52.540;13.416;2024-03-02T06:57:31;8.93;;;6.22;;
84140;SDS011;74257;52.540;13.416;2024-03-02T06:59:56;9.48;;;5.53;;
84140;SDS011;74257;52.540;13.416;2024-03-02T07:02:24;10.90;;;6.13;;
84140;SDS011;74257;52.540;13.416;2024-03-02T07:04:52;8.00;;;5.90;;
84140;SDS011;74257;52.540;13.416;2024-03-02T07:07:20;9.63;;;5.93;;
84140;SDS011;74257;52.540;13.416;2024-03-02T07:09:46;10.45;;;6.00;;
84140;SDS011;74257;52.540;13.416;2024-03-02T07:12:12;8.50;;;5.22;;
84140;SDS011;74257;52.540;13.416;2024-03-02T07:14:37;9.45;;;5.75;;
84140;SDS011;74257;52.540;13.416;2024-03-02T07:17:37;12.52;;;5.68;;
84140;SDS011;74257;52.540;13.416;2024-03-02T07:20:02;8.48;;;5.50;;
84140;SDS011;74257;52.540;13.416;2024-03-02T07:22:29;9.52;;;5.93;;
84140;SDS011;74257;52.540;13.416;2024-03-02T07:24:55;10.55;;;6.10;;
84140;SDS011;74257;52.540;13.416;2024-03-02T07:27:21;17.88;;;7.68;;
84140;SDS011;74257;52.540;13.416;2024-03-02T07:29:46;15.07;;;9.30;;
84140;SDS011;74257;52.540;13.416;2024-03-02T07:32:12;13.00;;;8.18;;
84140;SDS011;74257;52.540;13.416;2024-03-02T07:34:38;13.15;;;9.25;;
84140;SDS011;74257;52.540;13.416;2024-03-02T07:37:04;16.13;;;8.23;;
84140;SDS011;74257;52.540;13.416;2024-03-02T07:39:31;11.90;;;8.43;;
84140;SDS011;74257;52.540;13.416;2024-03-02T07:41:57;16.00;;;9.18;;
84140;SDS011;74257;52.540;13.416;2024-03-02T07:44:22;16.25;;;9.73;;
84140;SDS011;74257;52.540;13.416;2024-03-02T07:46:48;14.85;;;8.45;;
84140;SDS011;74257;52.540;13.416;2024-03-02T07:51:43;14.55;;;8.93;;
84140;SDS011;74257;52.540;13.416;2024-03-02T07:54:09;13.68;;;9.15;;
84140;SDS011;74257;52.540;13.416;2024-03-02T07:56:35;17.15;;;9.30;;
84140;SDS011;74257;52.540;13.416;2024-03-02T07:59:01;16.33;;;9.70;;
84140;SDS011;74257;52.540;13.416;2024-03-02T08:01:28;18.75;;;9.18;;
84140;SDS011;74257;52.540;13.416;2024-03-02T08:03:57;14.63;;;9.50;;
84140;SDS011;74257;52.540;13.416;2024-03-02T08:06:24;15.18;;;9.57;;
84140;SDS011;74257;52.540;13.416;2024-03-02T08:11:30;15.35;;;9.27;;
84140;SDS011;74257;52.540;13.416;2024-03-02T08:13:56;20.73;;;9.63;;
84140;SDS011;74257;52.540;13.416;2024-03-02T08:16:24;15.45;;;9.93;;
84140;SDS011;74257;52.540;13.416;2024-03-02T08:18:50;15.30;;;9.38;;
84140;SDS011;74257;52.540;13.416;2024-03-02T08:21:17;13.27;;;9.27;;
84140;SDS011;74257;52.540;13.416;2024-03-02T08:23:43;16.98;;;9.10;;
84140;SDS011;74257;52.540;13.416;2024-03-02T08:26:09;18.85;;;9.23;;
84140;SDS011;74257;52.540;13.416;2024-03-02T08:28:36;17.67;;;9.30;;
84140;SDS011;74257;52.540;13.416;2024-03-02T08:31:03;14.85;;;9.52;;
84140;SDS011;74257;52.540;13.416;2024-03-02T08:33:29;20.90;;;9.65;;
84140;SDS011;74257;52.540;13.416;2024-03-02T08:35:55;20.20;;;9.57;;
84140;SDS011;74257;52.540;13.416;2024-03-02T08:38:21;16.73;;;9.57;;
84140;SDS011;74257;52.540;13.416;2024-03-02T08:40:47;13.10;;;8.30;;
84140;SDS011;74257;52.540;13.416;2024-03-02T08:43:12;22.52;;;8.93;;
84140;SDS011;74257;52.540;13.416;2024-03-02T08:45:39;17.00;;;9.70;;
84140;SDS011;74257;52.540;13.416;2024-03-02T08:48:06;15.95;;;9.95;;
84140;SDS011;74257;52.540;13.416;2024-03-02T08:50:34;15.50;;;8.23;;
84140;SDS011;74257;52.540;13.416;2024-03-02T08:53:00;19.25;;;9.45;;
84140;SDS011;74257;52.540;13.416;2024-03-02T08:55:26;14.50;;;9.63;;
84140;SDS011;74257;52.540;13.416;2024-03-02T08:57:52;16.40;;;9.82;;
84140;SDS011;74257;52.540;13.416;2024-03-02T09:00:18;19.30;;;9.63;;
84140;SDS011;74257;52.540;13.416;2024-03-02T09:02:44;16.10;;;9.95;;
84140;SDS011;74257;52.540;13.416;2024-03-02T09:05:10;14.88;;;9.00;;
84140;SDS011;74257;52.540;13.416;2024-03-02T09:07:36;24.10;;;9.57;;
84140;SDS011;74257;52.540;13.416;2024-03-02T09:10:04;17.70;;;9.40;;
84140;SDS011;74257;52.540;13.416;2024-03-02T09:12:31;17.52;;;8.98;;
84140;SDS011;74257;52.540;13.416;2024-03-02T09:14:57;22.33;;;9.85;;
84140;SDS011;74257;52.540;13.416;2024-03-02T09:17:24;19.35;;;9.60;;
84140;SDS011;74257;52.540;13.416;2024-03-02T09:19:49;24.10;;;10.07;;
84140;SDS011;74257;52.540;13.416;2024-03-02T09:22:20;17.67;;;9.43;;
84140;SDS011;74257;52.540;13.416;2024-03-02T09:24:47;23.85;;;9.43;;
84140;SDS011;74257;52.540;13.416;2024-03-02T09:27:12;16.83;;;8.70;;
84140;SDS011;74257;52.540;13.416;2024-03-02T09:29:38;19.58;;;9.25;;
84140;SDS011;74257;52.540;13.416;2024-03-02T09:32:05;19.60;;;9.50;;
84140;SDS011;74257;52.540;13.416;2024-03-02T09:34:31;19.45;;;9.73;;
84140;SDS011;74257;52.540;13.416;2024-03-02T09:36:57;38.78;;;10.15;;
84140;SDS011;74257;52.540;13.416;2024-03-02T09:39:23;37.13;;;10.52;;
84140;SDS011;74257;52.540;13.416;2024-03-02T09:41:50;29.15;;;10.52;;
84140;SDS011;74257;52.540;13.416;2024-03-02T09:44:16;28.33;;;10.20;;
84140;SDS011;74257;52.540;13.416;2024-03-02T09:46:42;24.95;;;9.43;;
84140;SDS011;74257;52.540;13.416;2024-03-02T09:49:10;24.20;;;9.73;;
84140;SDS011;74257;52.540;13.416;2024-03-02T09:51:39;18.98;;;9.13;;
84140;SDS011;74257;52.540;13.416;2024-03-02T09:54:07;24.65;;;9.00;;
84140;SDS011;74257;52.540;13.416;2024-03-02T09:56:33;29.27;;;9.32;;
84140;SDS011;74257;52.540;13.416;2024-03-02T09:58:59;28.05;;;10.75;;
84140;SDS011;74257;52.540;13.416;2024-03-02T10:01:25;22.25;;;9.70;;
84140;SDS011;74257;52.540;13.416;2024-03-02T10:03:50;19.75;;;9.18;;
84140;SDS011;74257;52.540;13.416;2024-03-02T10:06:18;22.25;;;10.25;;
84140;SDS011;74257;52.540;13.416;2024-03-02T10:08:44;19.92;;;9.45;;
84140;SDS011;74257;52.540;13.416;2024-03-02T10:11:10;27.13;;;9.60;;
84140;SDS011;74257;52.540;13.416;2024-03-02T10:13:36;25.02;;;9.85;;
84140;SDS011;74257;52.540;13.416;2024-03-02T10:16:11;27.33;;;9.90;;
84140;SDS011;74257;52.540;13.416;2024-03-02T10:18:37;16.70;;;9.73;;
84140;SDS011;74257;52.540;13.416;2024-03-02T10:21:13;26.40;;;9.10;;
84140;SDS011;74257;52.540;13.416;2024-03-02T10:23:39;35.70;;;10.40;;
84140;SDS011;74257;52.540;13.416;2024-03-02T10:26:17;23.45;;;9.45;;
84140;SDS011;74257;52.540;13.416;2024-03-02T10:28:46;35.17;;;10.45;;
84140;SDS011;74257;52.540;13.416;2024-03-02T10:31:12;30.60;;;10.80;;
84140;SDS011;74257;52.540;13.416;2024-03-02T10:33:39;23.77;;;10.05;;
84140;SDS011;74257;52.540;13.416;2024-03-02T10:36:05;23.98;;;10.57;;
84140;SDS011;74257;52.540;13.416;2024-03-02T10:38:31;27.27;;;9.63;;
84140;SDS011;74257;52.540;13.416;2024-03-02T10:40:57;25.77;;;9.75;;
84140;SDS011;74257;52.540;13.416;2024-03-02T10:43:25;27.55;;;10.73;;
84140;SDS011;74257;52.540;13.416;2024-03-02T10:45:51;24.60;;;11.00;;
84140;SDS011;74257;52.540;13.416;2024-03-02T10:48:18;25.67;;;9.90;;
84140;SDS011;74257;52.540;13.416;2024-03-02T10:50:44;28.52;;;10.30;;
84140;SDS011;74257;52.540;13.416;2024-03-02T10:53:10;27.42;;;10.13;;
84140;SDS011;74257;52.540;13.416;2024-03-02T10:55:36;23.70;;;10.30;;
84140;SDS011;74257;52.540;13.416;2024-03-02T10:58:03;27.70;;;10.75;;
84140;SDS011;74257;52.540;13.416;2024-03-02T11:00:33;30.88;;;10.80;;
84140;SDS011;74257;52.540;13.416;2024-03-02T11:03:04;27.45;;;10.68;;
84140;SDS011;74257;52.540;13.416;2024-03-02T11:05:38;27.08;;;11.02;;
84140;SDS011;74257;52.540;13.416;2024-03-02T11:08:12;32.17;;;10.52;;
84140;SDS011;74257;52.540;13.416;2024-03-02T11:10:48;22.63;;;10.82;;
84140;SDS011;74257;52.540;13.416;2024-03-02T11:13:17;25.65;;;10.60;;
84140;SDS011;74257;52.540;13.416;2024-03-02T11:18:46;28.75;;;10.35;;
84140;SDS011;74257;52.540;13.416;2024-03-02T11:21:14;26.60;;;10.90;;
84140;SDS011;74257;52.540;13.416;2024-03-02T11:23:41;30.42;;;11.35;;
84140;SDS011;74257;52.540;13.416;2024-03-02T11:26:19;21.00;;;11.20;;
84140;SDS011;74257;52.540;13.416;2024-03-02T11:28:46;29.60;;;11.48;;
84140;SDS011;74257;52.540;13.416;2024-03-02T11:31:12;21.70;;;10.27;;
84140;SDS011;74257;52.540;13.416;2024-03-02T11:33:38;23.38;;;10.52;;
84140;SDS011;74257;52.540;13.416;2024-03-02T11:36:06;32.22;;;11.73;;
84140;SDS011;74257;52.540;13.416;2024-03-02T11:38:33;25.67;;;10.48;;
84140;SDS011;74257;52.540;13.416;2024-03-02T11:41:00;23.33;;;10.25;;
84140;SDS011;74257;52.540;13.416;2024-03-02T11:43:28;20.05;;;10.48;;
84140;SDS011;74257;52.540;13.416;2024-03-02T11:45:58;23.48;;;11.88;;
84140;SDS011;74257;52.540;13.416;2024-03-02T11:48:25;25.20;;;9.35;;
84140;SDS011;74257;52.540;13.416;2024-03-02T11:50:52;20.88;;;10.23;;
84140;SDS011;74257;52.540;13.416;2024-03-02T11:53:19;18.42;;;9.73;;
84140;SDS011;74257;52.540;13.416;2024-03-02T11:55:45;20.75;;;10.18;;
84140;SDS011;74257;52.540;13.416;2024-03-02T11:58:14;23.48;;;10.65;;
84140;SDS011;74257;52.540;13.416;2024-03-02T12:00:46;22.08;;;10.45;;
84140;SDS011;74257;52.540;13.416;2024-03-02T12:03:12;20.40;;;9.23;;
84140;SDS011;74257;52.540;13.416;2024-03-02T12:05:39;22.33;;;11.07;;
84140;SDS011;74257;52.540;13.416;2024-03-02T12:08:05;21.30;;;9.52;;
84140;SDS011;74257;52.540;13.416;2024-03-02T12:10:32;20.52;;;10.23;;
84140;SDS011;74257;52.540;13.416;2024-03-02T12:13:02;15.80;;;9.07;;
84140;SDS011;74257;52.540;13.416;2024-03-02T12:15:30;18.02;;;10.00;;
84140;SDS011;74257;52.540;13.416;2024-03-02T12:17:58;20.92;;;10.15;;
84140;SDS011;74257;52.540;13.416;2024-03-02T12:20:25;20.55;;;9.77;;
84140;SDS011;74257;52.540;13.416;2024-03-02T12:22:53;16.58;;;9.00;;
84140;SDS011;74257;52.540;13.416;2024-03-02T12:25:20;17.20;;;9.48;;
84140;SDS011;74257;52.540;13.416;2024-03-02T12:27:49;17.70;;;9.70;;
84140;SDS011;74257;52.540;13.416;2024-03-02T12:30:19;23.45;;;9.48;;
84140;SDS011;74257;52.540;13.416;2024-03-02T12:32:45;14.30;;;8.32;;
84140;SDS011;74257;52.540;13.416;2024-03-02T12:35:11;21.90;;;9.90;;
84140;SDS011;74257;52.540;13.416;2024-03-02T12:40:10;18.38;;;9.48;;
84140;SDS011;74257;52.540;13.416;2024-03-02T12:42:38;18.02;;;9.50;;
84140;SDS011;74257;52.540;13.416;2024-03-02T12:45:04;17.98;;;8.88;;
84140;SDS011;74257;52.540;13.416;2024-03-02T12:47:31;18.13;;;9.70;;
84140;SDS011;74257;52.540;13.416;2024-03-02T12:49:58;18.98;;;9.55;;
84140;SDS011;74257;52.540;13.416;2024-03-02T12:52:24;18.13;;;9.20;;
84140;SDS011;74257;52.540;13.416;2024-03-02T12:54:50;19.75;;;9.10;;
84140;SDS011;74257;52.540;13.416;2024-03-02T12:57:19;16.38;;;8.88;;
84140;SDS011;74257;52.540;13.416;2024-03-02T13:02:16;15.60;;;8.77;;
84140;SDS011;74257;52.540;13.416;2024-03-02T13:04:43;14.57;;;8.60;;
84140;SDS011;74257;52.540;13.416;2024-03-02T13:07:10;16.05;;;9.23;;
84140;SDS011;74257;52.540;13.416;2024-03-02T13:09:38;15.60;;;9.30;;
84140;SDS011;74257;52.540;13.416;2024-03-02T13:12:05;17.70;;;8.80;;
84140;SDS011;74257;52.540;13.416;2024-03-02T13:14:33;21.17;;;9.25;;
84140;SDS011;74257;52.540;13.416;2024-03-02T13:17:01;14.90;;;9.30;;
84140;SDS011;74257;52.540;13.416;2024-03-02T13:21:56;17.17;;;8.77;;
84140;SDS011;74257;52.540;13.416;2024-03-02T13:24:22;13.00;;;8.52;;
84140;SDS011;74257;52.540;13.416;2024-03-02T13:26:51;14.20;;;8.38;;
84140;SDS011;74257;52.540;13.416;2024-03-02T13:29:21;15.70;;;8.98;;
84140;SDS011;74257;52.540;13.416;2024-03-02T13:31:47;17.90;;;9.30;;
84140;SDS011;74257;52.540;13.416;2024-03-02T13:34:13;13.35;;;8.13;;
84140;SDS011;74257;52.540;13.416;2024-03-02T13:36:39;17.20;;;9.15;;
84140;SDS011;74257;52.540;13.416;2024-03-02T13:39:05;16.35;;;9.32;;
84140;SDS011;74257;52.540;13.416;2024-03-02T13:41:31;13.95;;;8.50;;
84140;SDS011;74257;52.540;13.416;2024-03-02T13:43:57;16.70;;;8.52;;
84140;SDS011;74257;52.540;13.416;2024-03-02T13:46:26;12.25;;;8.25;;
84140;SDS011;74257;52.540;13.416;2024-03-02T13:48:52;13.07;;;8.18;;
84140;SDS011;74257;52.540;13.416;2024-03-02T13:51:19;13.00;;;8.20;;
84140;SDS011;74257;52.540;13.416;2024-03-02T13:53:45;13.55;;;8.23;;
84140;SDS011;74257;52.540;13.416;2024-03-02T13:56:11;16.35;;;8.05;;
84140;SDS011;74257;52.540;13.416;2024-03-02T13:58:37;21.00;;;8.88;;
84140;SDS011;74257;52.540;13.416;2024-03-02T14:01:03;13.48;;;8.50;;
84140;SDS011;74257;52.540;13.416;2024-03-02T14:03:30;13.90;;;8.15;;
84140;SDS011;74257;52.540;13.416;2024-03-02T14:05:56;14.95;;;8.00;;
84140;SDS011;74257;52.540;13.416;2024-03-02T14:08:23;16.33;;;8.98;;
84140;SDS011;74257;52.540;13.416;2024-03-02T14:10:49;15.63;;;8.55;;
84140;SDS011;74257;52.540;13.416;2024-03-02T14:13:14;15.00;;;8.32;;
84140;SDS011;74257;52.540;13.416;2024-03-02T14:15:41;14.55;;;8.65;;
84140;SDS011;74257;52.540;13.416;2024-03-02T14:18:07;13.07;;;8.13;;
84140;SDS011;74257;52.540;13.416;2024-03-02T14:20:35;14.60;;;7.78;;
84140;SDS011;74257;52.540;13.416;2024-03-02T14:23:01;15.63;;;8.57;;
84140;SDS011;74257;52.540;13.416;2024-03-02T14:25:28;14.77;;;8.95;;
84140;SDS011;74257;52.540;13.416;2024-03-02T14:27:56;14.35;;;8.02;;
84140;SDS011;74257;52.540;13.416;2024-03-02T14:30:23;12.60;;;8.15;;
84140;SDS011;74257;52.540;13.416;2024-03-02T14:32:49;12.90;;;7.85;;
84140;SDS011;74257;52.540;13.416;2024-03-02T14:35:15;14.93;;;8.27;;
84140;SDS011;74257;52.540;13.416;2024-03-02T14:37:41;12.60;;;7.53;;
84140;SDS011;74257;52.540;13.416;2024-03-02T14:40:07;12.05;;;8.00;;